Time;durP1;ratioP1;P1;durP2;ratioP2;P2;SDS_P1;SDS_P2;PMS_P1;PMS_P2;Temp;Humidity;BMP_temperature;BMP_pressure;BME280_temperature;BME280_humidity;BME280_pressure;Samples;Min_cycle;Max_cycle;Signal;HPM_P1;HPM_P2
2022/11/11 00:00:06;;;;;;;18.48;8.95;;;;;;;;;;4992410;28;20061;-64
2022/11/11 00:02:32;;;;;;;13.98;7.82;;;;;;;;;;4976327;28;20057;-64
2022/11/11 00:04:58;;;;;;;13.90;7.93;;;;;;;;;;4993490;28;20081;-63
2022/11/11 00:07:24;;;;;;;21.80;9.93;;;;;;;;;;4992255;28;20137;-64
2022/11/11 00:09:50;;;;;;;19.95;8.60;;;;;;;;;;4992450;28;20046;-63
2022/11/11 00:12:16;;;;;;;16.20;7.38;;;;;;;;;;4992125;28;20591;-65
2022/11/11 00:14:42;;;;;;;15.48;8.35;;;;;;;;;;4993308;28;20137;-64
2022/11/11 00:25:45;;;;;;;23.48;8.35;;;;;;;;;;4990663;28;20057;-64
2022/11/11 00:28:11;;;;;;;19.23;8.68;;;;;;;;;;4958694;28;20065;-64
2022/11/11 00:30:37;;;;;;;19.77;9.52;;;;;;;;;;4990357;28;20057;-64
2022/11/11 00:33:15;;;;;;;19.20;7.43;;;;;;;;;;4983474;23;20077;31
2022/11/11 00:35:53;;;;;;;17.48;7.93;;;;;;;;;;5008709;22;20049;-64
2022/11/11 00:41:05;;;;;;;15.55;8.80;;;;;;;;;;5032427;28;20067;-65
2022/11/11 00:43:31;;;;;;;23.20;9.38;;;;;;;;;;5014501;28;20084;-64
2022/11/11 00:50:57;;;;;;;22.73;9.85;;;;;;;;;;5031028;28;20057;-63
2022/11/11 00:51:27;;;;;;;15.82;8.70;;;;;;;;;;5032089;28;20049;-64
2022/11/11 00:53:54;;;;;;;20.35;9.38;;;;;;;;;;5014454;28;20061;-63
2022/11/11 00:56:20;;;;;;;21.00;10.40;;;;;;;;;;5030824;28;20089;-63
2022/11/11 00:58:46;;;;;;;18.98;9.40;;;;;;;;;;5031839;28;20049;-64
2022/11/11 01:01:12;;;;;;;18.13;9.00;;;;;;;;;;5030844;28;20437;-63
2022/11/11 01:03:38;;;;;;;18.55;8.25;;;;;;;;;;5030823;28;20052;-63
2022/11/11 01:06:05;;;;;;;19.23;9.65;;;;;;;;;;5033716;28;20096;-63
2022/11/11 01:08:31;;;;;;;23.00;10.18;;;;;;;;;;5035740;28;20088;-64
2022/11/11 01:10:58;;;;;;;17.77;10.48;;;;;;;;;;5035047;28;20179;-63
2022/11/11 01:13:25;;;;;;;18.52;9.35;;;;;;;;;;5018130;28;20413;-63
2022/11/11 01:15:52;;;;;;;19.67;9.60;;;;;;;;;;5036011;28;20487;-63
2022/11/11 01:18:24;;;;;;;27.92;11.75;;;;;;;;;;5018294;28;20061;-64
2022/11/11 01:21:03;;;;;;;19.02;9.80;;;;;;;;;;5035794;28;20048;-64
2022/11/11 01:23:30;;;;;;;18.75;10.13;;;;;;;;;;5034706;28;20045;-64
2022/11/11 01:26:01;;;;;;;15.88;10.18;;;;;;;;;;5018343;28;20045;-63
2022/11/11 01:28:26;;;;;;;;;;;11.40;99.90;;;;;;5018295;28;20049;-64
2022/11/11 01:30:52;;;;;;;21.00;10.10;;;;;;;;;;5036105;28;19975;-63
2022/11/11 01:33:18;;;;;;;20.92;11.23;;;;;;;;;;5034514;28;20052;-65
2022/11/11 01:35:46;;;;;;;19.58;10.00;;;;;;;;;;5035621;28;20052;-64
2022/11/11 01:38:12;;;;;;;21.80;10.25;;;;;;;;;;5044467;28;20076;-63
2022/11/11 01:40:42;;;;;;;19.92;10.90;;;;;;;;;;5055342;28;20120;-63
2022/11/11 01:43:08;;;;;;;20.17;11.23;;;;;;;;;;5037310;28;20106;-63
2022/11/11 01:45:46;;;;;;;19.42;11.23;;;;;;;;;;5055110;28;20493;-64
2022/11/11 01:51:10;;;;;;;18.83;11.45;;;;;;;;;;5037613;28;20055;-63
2022/11/11 01:53:36;;;;;;;20.90;11.10;;;;;;;;;;5020774;28;20497;-64
2022/11/11 01:56:02;;;;;;;22.23;11.70;;;;;;;;;;5054761;28;20485;-63
2022/11/11 01:58:29;;;;;;;25.90;13.02;;;;;;;;;;5037263;28;20053;-64
2022/11/11 02:00:56;;;;;;;25.75;12.82;;;;;;;;;;5037344;28;20049;-63
2022/11/11 02:03:23;;;;;;;24.98;13.32;;;;;;;;;;5054992;28;20119;-63
2022/11/11 02:05:54;;;;;;;24.05;13.98;;;;;;;;;;5037224;28;20091;-64
2022/11/11 02:08:31;;;;;;;22.17;12.32;;;;;;;;;;5020967;28;20080;-64
2022/11/11 02:14:34;;;;;;;24.15;12.32;;;;;;;;;;5036667;28;20081;-64
2022/11/11 02:16:46;;;;;;;28.10;16.15;;;;;;;;;;5037033;28;20080;-64
2022/11/11 02:19:13;;;;;;;31.90;16.90;;;;;;;;;;5054656;28;20137;-63
2022/11/11 02:21:43;;;;;;;34.65;18.15;;;;;;;;;;5020651;28;20615;-64
2022/11/11 02:24:11;;;;;;;27.20;17.05;;;;;;;;;;5036945;28;20045;-64
2022/11/11 02:26:38;;;;;;;33.92;16.77;;;;;;;;;;5054043;28;20041;-64
2022/11/11 02:29:08;;;;;;;27.85;16.58;;;;;;;;;;5036734;28;20045;-64
2022/11/11 02:31:34;;;;;;;29.20;17.23;;;;;;;;;;5036715;28;20099;-64
2022/11/11 02:34:00;;;;;;;33.00;18.85;;;;;;;;;;5054333;28;20045;-64
2022/11/11 02:36:26;;;;;;;30.60;16.42;;;;;;;;;;5054392;28;20123;-64
2022/11/11 02:38:52;;;;;;;29.02;18.48;;;;;;;;;;5036230;28;20547;-64
2022/11/11 02:44:03;;;;;;;33.97;18.25;;;;;;;;;;5036570;28;20048;-63
2022/11/11 02:46:29;;;;;;;25.80;17.20;;;;;;;;;;5053901;28;20041;-64
2022/11/11 02:48:55;;;;;;;34.05;18.67;;;;;;;;;;5054472;28;20136;-63
2022/11/11 02:51:21;;;;;;;29.88;16.67;;;;;;;;;;5053842;28;20132;-63
2022/11/11 02:53:47;;;;;;;30.88;17.92;;;;;;;;;;5036213;28;20055;-64
2022/11/11 02:57:05;;;;;;;28.77;18.95;;;;;;;;;;5054101;28;20045;-63
2022/11/11 02:58:59;;;;;;;27.20;18.20;;;;;;;;;;5053702;28;20049;-63
2022/11/11 03:01:25;;;;;;;30.73;18.05;;;;;;;;;;5053907;28;20055;-63
2022/11/11 03:03:51;;;;;;;28.17;18.73;;;;;;;;;;5053995;28;20095;-63
2022/11/11 03:06:17;;;;;;;32.05;19.80;;;;;;;;;;5053612;28;20041;-64
2022/11/11 03:08:43;;;;;;;33.92;19.40;;;;;;;;;;5053625;28;20128;-63
2022/11/11 03:11:09;;;;;;;30.40;18.92;;;;;;;;;;5053832;28;20048;-64
2022/11/11 03:13:35;;;;;;;31.92;18.67;;;;;;;;;;5053434;28;20110;-63
2022/11/11 03:16:01;;;;;;;33.40;18.83;;;;;;;;;;5053863;28;20040;-63
2022/11/11 03:18:27;;;;;;;39.70;20.67;;;;;;;;;;5036060;28;20080;-63
2022/11/11 03:21:05;;;;;;;32.22;20.17;;;;;;;;;;5053592;28;20110;-63
2022/11/11 03:23:31;;;;;;;34.60;21.02;;;;;;;;;;5035378;28;20071;-63
2022/11/11 03:25:57;;;;;;;31.02;17.92;;;;;;;;;;5035539;28;20045;-64
2022/11/11 03:28:26;;;;;;;39.13;21.83;;;;;;;;;;5035265;28;20045;-63
2022/11/11 03:30:53;;;;;;;37.38;21.40;;;;;;;;;;5053500;28;20041;-63
2022/11/11 03:33:19;;;;;;;35.75;20.13;;;;;;;;;;5035310;28;20048;-64
2022/11/11 03:35:48;;;;;;;34.13;21.50;;;;;;;;;;5107269;22;20404;-64
2022/11/11 03:38:14;;;;;;;41.45;23.38;;;;;;;;;;5091330;22;20062;-64
2022/11/11 03:40:40;;;;;;;30.13;18.85;;;;;;;;;;5018479;28;20110;-64
2022/11/11 03:43:06;;;;;;;36.30;20.83;;;;;;;;;;5053260;28;20048;-63
2022/11/11 03:45:32;;;;;;;41.35;22.95;;;;;;;;;;5052874;28;20041;-63
2022/11/11 03:47:59;;;;;;;28.17;18.90;;;;;;;;;;5052958;28;20037;-64
2022/11/11 03:50:28;;;;;;;35.67;19.95;;;;;;;;;;5025948;22;20618;-64
2022/11/11 03:52:54;;;;;;;32.53;19.65;;;;;;;;;;5027854;23;20053;-63
2022/11/11 03:55:20;;;;;;;35.88;21.25;;;;;;;;;;5044959;23;20502;-63
2022/11/11 03:57:46;;;;;;;35.38;22.13;;;;;;;;;;5033160;28;20049;-64
2022/11/11 04:00:14;;;;;;;32.00;20.63;;;;;;;;;;5031911;28;20064;-64
2022/11/11 04:11:00;;;;;;;37.97;22.23;;;;;;;;;;5032897;28;20410;-63
2022/11/11 04:16:12;;;;;;;40.30;22.60;;;;;;;;;;5033024;28;20041;-64
2022/11/11 04:21:42;;;;;;;37.05;22.77;;;;;;;;;;5009892;28;20061;-64
2022/11/11 04:27:00;;;;;;;30.88;18.88;;;;;;;;;;4994090;28;20042;-63
2022/11/11 04:29:27;;;;;;;39.47;23.50;;;;;;;;;;4994010;28;20045;-63
2022/11/11 04:34:38;;;;;;;42.15;24.10;;;;;;;;;;5010199;28;20148;-63
2022/11/11 04:37:04;;;;;;;28.98;18.05;;;;;;;;;;5010033;28;20132;-63
2022/11/11 04:42:14;;;;;;;38.80;21.48;;;;;;;;;;5010406;28;20061;-64
2022/11/11 04:47:25;;;;;;;37.40;23.05;;;;;;;;;;4993784;28;20050;-64
2022/11/11 04:49:51;;;;;;;41.08;20.75;;;;;;;;;;4993725;28;20050;-64
2022/11/11 04:52:26;;;;;;;44.80;23.30;;;;;;;;;;4977540;28;20085;-65
2022/11/11 04:57:47;;;;;;;38.22;22.15;;;;;;;;;;4996866;28;20045;-64
2022/11/11 05:00:15;;;;;;;39.72;24.70;;;;;;;;;;5031082;28;20453;-63
2022/11/11 05:05:26;;;;;;;40.10;22.23;;;;;;;;;;5031518;28;20042;-63
2022/11/11 05:10:37;;;;;;;43.92;23.88;;;;;;;;;;5031995;28;20129;-63
2022/11/11 05:21:21;;;;;;;43.13;25.50;;;;;;;;;;5031859;28;20053;-64
2022/11/11 05:26:32;;;;;;;43.95;22.63;;;;;;;;;;5030495;28;20085;-64
2022/11/11 05:28:58;;;;;;;39.08;22.48;;;;;;;;;;5030776;28;20054;-64
2022/11/11 05:31:24;;;;;;;42.25;23.52;;;;;;;;;;5031740;28;20057;-64
2022/11/11 05:33:50;;;;;;;45.83;22.48;;;;;;;;;;5030589;28;20045;-64
2022/11/11 05:36:16;;;;;;;44.42;23.48;;;;;;;;;;5031670;28;20476;-66
2022/11/11 05:38:42;;;;;;;43.97;23.98;;;;;;;;;;5030795;28;20107;-64
2022/11/11 05:41:09;;;;;;;41.78;23.83;;;;;;;;;;5030604;28;20098;-64
2022/11/11 05:43:35;;;;;;;40.33;22.48;;;;;;;;;;5030175;28;20409;-64
2022/11/11 05:46:01;;;;;;;47.53;24.85;;;;;;;;;;5031763;28;20048;-64
2022/11/11 05:48:27;;;;;;;42.03;25.85;;;;;;;;;;5013771;28;20053;-63
2022/11/11 05:50:53;;;;;;;40.47;24.88;;;;;;;;;;5032513;28;20057;-63
2022/11/11 05:53:22;;;;;;;40.10;22.88;;;;;;;;;;5033887;28;20060;-64
2022/11/11 05:55:52;;;;;;;41.07;22.67;;;;;;;;;;5033933;28;20498;-65
2022/11/11 05:58:18;;;;;;;37.78;23.23;;;;;;;;;;5033929;28;20524;-64
2022/11/11 06:00:44;;;;;;;34.22;21.42;;;;;;;;;;5034466;28;20057;-64
2022/11/11 06:03:10;;;;;;;42.83;25.70;;;;;;;;;;5033779;28;20103;-63
2022/11/11 06:05:36;;;;;;;43.88;23.70;;;;;;;;;;5033755;28;20045;-63
2022/11/11 06:08:03;;;;;;;39.30;23.50;;;;;;;;;;5017660;28;20406;-63
2022/11/11 06:10:29;;;;;;;41.33;24.08;;;;;;;;;;5017622;28;20057;-64
2022/11/11 06:13:01;;;;;;;41.03;24.80;;;;;;;;;;5033831;28;20049;-63
2022/11/11 06:15:34;;;;;;;45.55;23.85;;;;;;;;;;5033730;28;20049;-63
2022/11/11 06:18:01;;;;;;;44.35;24.15;;;;;;;;;;5034565;28;20516;-64
2022/11/11 06:20:27;;;;;;;44.72;25.92;;;;;;;;;;5033679;28;20045;-64
2022/11/11 06:22:56;;;;;;;45.20;24.83;;;;;;;;;;5033538;28;20052;-64
2022/11/11 06:28:08;;;;;;;49.03;26.17;;;;;;;;;;5033564;28;20084;-65
2022/11/11 06:30:34;;;;;;;44.47;25.38;;;;;;;;;;5034528;28;20049;-64
2022/11/11 06:33:00;;;;;;;41.90;25.10;;;;;;;;;;5034314;28;20046;-64
2022/11/11 06:35:26;;;;;;;49.70;26.40;;;;;;;;;;5016527;28;20543;-64
2022/11/11 06:37:52;;;;;;;43.78;26.30;;;;;;;;;;5033544;28;20049;-64
2022/11/11 06:40:18;;;;;;;42.25;25.50;;;;;;;;;;5033024;28;20053;-64
2022/11/11 06:42:44;;;;;;;42.42;21.27;;;;;;;;;;5034479;28;20406;-64
2022/11/11 06:45:10;;;;;;;42.47;22.73;;;;;;;;;;5034328;28;20055;-64
2022/11/11 06:47:36;;;;;;;38.83;21.40;;;;;;;;;;5016387;28;20057;-63
2022/11/11 06:50:03;;;;;;;42.65;24.50;;;;;;;;;;5033061;28;20509;-64
2022/11/11 06:53:04;;;;;;;43.50;25.02;;;10.50;99.90;;;;;;5068431;22;20355;31
2022/11/11 06:55:31;;;;;;;48.20;24.88;;;;;;;;;;4973542;28;20061;-62
2022/11/11 06:58:03;;;;;;;40.42;24.08;;;;;;;;;;4958367;28;20043;-63
2022/11/11 07:00:30;;;;;;;47.75;23.40;;;;;;;;;;4973705;28;20137;-62
2022/11/11 07:02:56;;;;;;;41.45;19.98;;;;;;;;;;4974634;28;20186;-63
2022/11/11 07:05:22;;;;;;;43.20;23.58;;;;;;;;;;5026433;22;20045;-62
2022/11/11 07:07:54;;;;;;;45.75;25.45;;;;;;;;;;5073364;22;20049;-63
2022/11/11 07:10:20;;;;;;;44.80;24.55;;;;;;;;;;5063278;22;20056;-63
2022/11/11 07:12:46;;;;;;;39.67;21.83;;;;;;;;;;5036185;28;20615;-63
2022/11/11 07:15:12;;;;;;;37.75;20.83;;;;;;;;;;5053348;28;20507;-63
2022/11/11 07:17:38;;;;;;;44.08;22.90;;;;;;;;;;5019448;28;20052;-62
2022/11/11 07:20:05;;;;;;;43.95;25.10;;;;;;;;;;5019714;28;20060;-63
2022/11/11 07:22:31;;;;;;;53.33;26.08;;;;;;;;;;5035788;28;20120;-62
2022/11/11 07:24:57;;;;;;;42.40;25.58;;;;;;;;;;5035714;28;20494;-62
2022/11/11 07:27:23;;;;;;;45.78;25.65;;;;;;;;;;5035495;28;20124;-62
2022/11/11 07:29:49;;;;;;;45.20;25.08;;;;;;;;;;5035353;28;20481;-63
2022/11/11 07:32:18;;;;;;;45.17;24.60;;;;;;;;;;5035840;28;20055;-63
2022/11/11 07:34:44;;;;;;;39.50;23.83;;;;;;;;;;5035633;28;20055;-63
2022/11/11 07:37:10;;;;;;;43.58;24.08;;;;;;;;;;5019159;28;20493;-62
2022/11/11 07:39:36;;;;;;;40.30;23.33;;;;;;;;;;5035480;28;20064;-62
2022/11/11 07:42:02;;;;;;;40.45;23.67;;;;;;;;;;5053481;28;20063;-63
2022/11/11 07:44:28;;;;;;;38.65;22.88;;;;;;;;;;5034679;28;20591;-63
2022/11/11 07:46:54;;;;;;;39.80;21.92;;;;;;;;;;5035462;28;20087;-62
2022/11/11 07:49:20;;;;;;;37.50;21.35;;;;;;;;;;5035412;28;20041;-63
2022/11/11 07:51:46;;;;;;;40.67;24.45;;;;;;;;;;5018785;28;20621;-63
2022/11/11 07:54:12;;;;;;;40.10;23.45;;;;;;;;;;5053022;28;20124;-62
2022/11/11 07:56:38;;;;;;;36.20;21.88;;;;;;;;;;5018291;28;20060;-62
2022/11/11 07:59:04;;;;;;;37.90;21.33;;;;;;;;;;5018815;28;20123;-62
2022/11/11 08:01:30;;;;;;;32.13;21.40;;;;;;;;;;5018597;28;20140;-63
2022/11/11 08:03:56;;;;;;;32.30;20.73;;;;;;;;;;5034940;28;20134;-63
2022/11/11 08:06:22;;;;;;;39.05;22.55;;;;;;;;;;5052065;28;20549;-63
2022/11/11 08:08:49;;;;;;;38.42;22.88;;;;;;;;;;5018393;28;20057;-63
2022/11/11 08:11:15;;;;;;;39.22;21.30;;;;;;;;;;5018435;28;20131;-63
2022/11/11 08:13:42;;;;;;;33.45;17.38;;;;;;;;;;5018194;28;20049;-63
2022/11/11 08:16:12;;;;;;;36.10;22.15;;;;;;;;;;5052537;28;20102;-63
2022/11/11 08:18:38;;;;;;;36.28;21.80;;;;;;;;;;5034476;28;20083;-63
2022/11/11 08:21:04;;;;;;;33.17;20.92;;;;;;;;;;5052364;28;20499;-63
2022/11/11 08:23:31;;;;;;;38.10;20.10;;;;;;;;;;5017747;28;20053;-62
2022/11/11 08:26:01;;;;;;;38.13;20.75;;;;;;;;;;5034355;28;20056;-63
2022/11/11 08:28:28;;;;;;;35.25;19.95;;;;;;;;;;5034402;28;20045;-63
2022/11/11 08:30:54;;;;;;;30.05;19.73;;;;;;;;;;5018136;28;20079;-63
2022/11/11 08:33:20;;;;;;;31.48;19.27;;;;;;;;;;5034193;28;20493;-63
2022/11/11 08:35:47;;;;;;;30.02;21.38;;;;;;;;;;5034583;28;20053;-63
2022/11/11 08:38:13;;;;;;;32.35;20.45;;;;;;;;;;5034367;28;20041;-63
2022/11/11 08:40:39;;;;;;;33.53;17.73;;;;;;;;;;5051631;28;20049;-62
2022/11/11 08:43:05;;;;;;;29.13;17.80;;;;;;;;;;5017744;28;20065;-63
2022/11/11 08:45:31;;;;;;;27.90;14.80;;;;;;;;;;5034189;28;20136;-63
2022/11/11 08:47:57;;;;;;;36.38;20.45;;;;;;;;;;5034263;28;20088;-63
2022/11/11 08:50:23;;;;;;;30.23;18.48;;;;;;;;;;5051592;28;20057;-63
2022/11/11 08:52:50;;;;;;;33.53;20.27;;;;;;;;;;5034300;28;20041;-63
2022/11/11 08:55:16;;;;;;;39.08;21.35;;;;;;;;;;5034039;28;20059;-65
2022/11/11 08:57:42;;;;;;;30.30;17.17;;;;;;;;;;5017826;28;20045;-62
2022/11/11 09:00:08;;;;;;;35.58;19.73;;;;;;;;;;5051894;28;20052;-63
2022/11/11 09:02:35;;;;;;;31.02;18.73;;;;;;;;;;5033839;28;20129;-63
2022/11/11 09:05:01;;;;;;;30.77;18.35;;;;;;;;;;5034041;28;20074;-63
2022/11/11 09:07:27;;;;;;;32.22;17.52;;;;;;;;;;5051440;28;20045;-63
2022/11/11 09:09:53;;;;;;;31.27;19.35;;;;;;;;;;5033693;28;20102;-63
2022/11/11 09:12:19;;;;;;;32.95;20.30;;;;;;;;;;5033769;28;20044;-64
2022/11/11 09:14:45;;;;;;;34.70;19.55;;;;;;;;;;5051655;28;20053;-63
2022/11/11 09:17:11;;;;;;;30.52;18.40;;;;;;;;;;5033698;28;20136;-63
2022/11/11 09:19:37;;;;;;;31.50;16.83;;;;;;;;;;5033676;28;20551;-63
2022/11/11 09:22:04;;;;;;;29.88;19.20;;;;;;;;;;5051411;28;20057;-64
2022/11/11 09:24:30;;;;;;;31.63;19.33;;;;;;;;;;5017349;28;20053;-63
2022/11/11 09:26:56;;;;;;;33.50;17.98;;;;;;;;;;5035858;28;20084;-63
2022/11/11 09:29:22;;;;;;;29.25;18.60;;;;;;;;;;5037704;28;20041;-63
2022/11/11 09:31:48;;;;;;;33.97;18.50;;;;;;;;;;5055336;28;20110;-63
2022/11/11 09:34:14;;;;;;;28.15;17.60;;;;;;;;;;5021359;28;20089;-63
2022/11/11 09:36:40;;;;;;;29.85;18.95;;;;;;;;;;5037344;28;20053;-63
2022/11/11 09:39:06;;;;;;;29.10;16.92;;;;;;;;;;5021171;28;20106;-63
2022/11/11 09:41:45;;;;;;;28.73;16.30;;;;;;;;;;5036943;28;20048;-63
2022/11/11 09:44:41;;;;;;;28.02;17.90;;;11.10;99.90;;;;;;5055274;28;20052;-63
2022/11/11 09:47:16;;;;;;;25.77;15.57;;;;;;;;;;4957859;28;20141;-63
2022/11/11 09:50:08;;;;;;;29.08;17.38;;;10.90;99.90;;;;;;4974263;28;20093;-63
2022/11/11 09:52:45;;;;;;;30.35;18.98;;;;;;;;;;4951357;28;20567;-63
2022/11/11 09:55:27;;;;;;;34.47;14.55;;;;;;;;;;4941934;28;20073;-63
2022/11/11 09:57:58;;;;;;;29.45;19.55;;;;;;;;;;4942212;28;20059;-63
2022/11/11 10:00:27;;;;;;;23.77;15.75;;;;;;;;;;4957613;28;20050;-63
2022/11/11 10:02:54;;;;;;;26.48;15.68;;;;;;;;;;4942063;28;20046;-63
2022/11/11 10:05:24;;;;;;;28.17;17.75;;;;;;;;;;4973671;28;20392;-64
2022/11/11 10:08:01;;;;;;;28.23;18.88;;;;;;;;;;4957976;28;20058;-63
2022/11/11 10:10:36;;;;;;;25.80;15.30;;;;;;;;;;4956838;28;20113;-63
2022/11/11 10:13:02;;;;;;;30.45;18.17;;;;;;;;;;4957767;28;20039;-63
2022/11/11 10:15:36;;;;;;;25.92;17.40;;;;;;;;;;4973513;28;20054;-63
2022/11/11 10:18:15;;;;;;;23.52;12.98;;;;;;;;;;5020665;22;20055;-63
2022/11/11 10:20:41;;;;;;;27.25;17.85;;;;;;;;;;5085720;22;20460;-64
2022/11/11 10:23:15;;;;;;;30.67;17.30;;;;;;;;;;5036527;28;20075;-63
2022/11/11 10:25:55;;;;;;;25.70;16.98;;;;;;;;;;5020659;28;20068;-63
2022/11/11 10:28:24;;;;;;;16.50;10.80;;;;;;;;;;5054242;28;20531;-63
2022/11/11 10:30:51;;;;;;;27.10;16.40;;;;;;;;;;5054544;28;20051;-64
2022/11/11 10:33:25;;;;;;;32.38;17.98;;;;;;;;;;5020209;28;20045;-64
2022/11/11 10:35:52;;;;;;;26.58;15.55;;;;;;;;;;5020605;28;20512;-63
2022/11/11 10:39:12;;;;;;;25.88;16.73;;;11.60;99.90;;;;;;5034920;28;20055;-63
2022/11/11 10:41:48;;;;;;;19.55;12.38;;;;;;;;;;4973066;28;20088;-63
2022/11/11 10:44:22;;;;;;;24.65;15.32;;;;;;;;;;4957634;28;20054;-63
2022/11/11 10:47:04;;;;;;;22.20;14.25;;;;;;;;;;4957306;28;20074;-63
2022/11/11 10:49:32;;;;;;;23.10;13.95;;;;;;;;;;4941217;28;20054;-63
2022/11/11 10:52:07;;;;;;;24.65;16.08;;;;;;;;;;4941034;28;20051;-63
2022/11/11 10:54:38;;;;;;;24.08;15.02;;;;;;;;;;4973133;28;20050;-63
2022/11/11 10:57:14;;;;;;;27.02;15.77;;;;;;;;;;4941061;28;20411;-63
2022/11/11 10:59:53;;;;;;;21.92;13.82;;;;;;;;;;4973092;28;20086;-63
2022/11/11 11:02:21;;;;;;;27.02;15.48;;;;;;;;;;4956634;28;20063;-63
2022/11/11 11:04:52;;;;;;;22.30;14.80;;;;;;;;;;4973073;28;20086;-63
2022/11/11 11:07:22;;;;;;;28.15;16.38;;;;;;;;;;4956260;28;20047;-63
2022/11/11 11:10:07;;;;;;;24.27;13.90;;;;;;;;;;4940726;28;20066;-63
2022/11/11 11:12:54;;;;;;;24.73;14.35;;;;;;;;;;4956561;28;20419;-63
2022/11/11 11:15:22;;;;;;;25.45;14.98;;;;;;;;;;5004078;28;20059;-63
2022/11/11 11:17:52;;;;;;;19.92;11.98;;;;;;;;;;5035996;28;20041;-63
2022/11/11 11:20:20;;;;;;;27.10;15.80;;;;;;;;;;5053536;28;20532;-63
2022/11/11 11:22:48;;;;;;;23.42;15.02;;;;;;;;;;5035384;28;20088;-63
2022/11/11 11:25:14;;;;;;;25.13;15.68;;;;;;;;;;5053535;28;20489;-63
2022/11/11 11:27:40;;;;;;;26.90;16.02;;;;;;;;;;5053400;28;20129;-63
2022/11/11 11:30:25;;;;;;;23.40;14.30;;;;;;;;;;5035987;28;20467;-64
2022/11/11 11:32:58;;;;;;;27.80;15.18;;;;;;;;;;5053539;28;20088;-63
2022/11/11 11:35:32;;;;;;;28.55;15.85;;;;;;;;;;5034893;28;20570;-63
2022/11/11 11:37:58;;;;;;;24.50;11.98;;;;;;;;;;5053500;28;20040;-63
2022/11/11 11:40:24;;;;;;;21.83;14.10;;;;;;;;;;5053119;28;20168;-62
2022/11/11 11:42:50;;;;;;;25.52;15.38;;;;;;;;;;5035575;28;20045;-63
2022/11/11 11:45:20;;;;;;;21.38;13.27;;;;;;;;;;5035330;28;20091;-63
2022/11/11 11:48:12;;;;;;;21.10;12.32;;;;;;;;;;5035715;28;20045;-62
2022/11/11 11:50:49;;;;;;;23.58;14.52;;;;;;;;;;5052757;28;20100;-63
2022/11/11 11:53:25;;;;;;;27.25;16.02;;;;;;;;;;5019201;28;20061;-63
2022/11/11 11:55:56;;;;;;;22.92;15.68;;;;;;;;;;5018894;28;20049;-63
2022/11/11 11:58:31;;;;;;;23.95;14.93;;;;;;;;;;5018603;28;20045;-63
2022/11/11 12:01:03;;;;;;;27.52;16.15;;;;;;;;;;5053028;28;20048;-63
2022/11/11 12:04:06;;;;;;;23.38;14.57;;;11.70;99.90;;;;;;5052785;28;20044;-62
2022/11/11 12:06:51;;;;;;;24.33;15.95;;;;;;;;;;5052191;28;20048;-63
2022/11/11 12:09:20;;;;;;;22.98;15.88;;;;;;;;;;5052740;28;20048;-63
2022/11/11 12:12:05;;;;;;;25.10;14.48;;;;;;;;;;5035043;28;20505;-63
2022/11/11 12:14:43;;;;;;;21.73;13.88;;;;;;;;;;5034924;28;20049;-63
2022/11/11 12:17:49;;;;;;;25.30;15.95;;;11.60;99.90;;;;;;5034986;28;20053;-63
2022/11/11 12:20:22;;;;;;;27.02;15.73;;;;;;;;;;5052417;28;20044;-63
2022/11/11 12:22:48;;;;;;;27.55;16.02;;;;;;;;;;5034662;28;20059;-63
2022/11/11 12:25:17;;;;;;;21.75;13.48;;;;;;;;;;5018481;28;20049;-63
2022/11/11 12:28:11;;;;;;;26.15;15.02;;;11.80;99.90;;;;;;5018282;28;20079;-64
2022/11/11 12:30:40;;;;;;;25.17;15.90;;;;;;;;;;4971227;28;20058;-63
2022/11/11 12:33:16;;;;;;;21.23;10.85;;;;;;;;;;4939583;28;20057;-63
2022/11/11 12:36:10;;;;;;;24.75;15.65;;;11.80;99.90;;;;;;4971131;28;20097;-64
2022/11/11 12:38:36;;;;;;;26.85;16.25;;;;;;;;;;4955308;28;20527;-64
2022/11/11 12:41:12;;;;;;;29.05;15.77;;;;;;;;;;4955447;28;20054;-63
2022/11/11 12:43:47;;;;;;;27.60;15.82;;;;;;;;;;4938975;28;20588;-63
2022/11/11 12:46:52;;;;;;;24.90;14.75;;;11.90;99.90;;;;;;4955170;28;20042;-63
2022/11/11 12:49:36;;;;;;;26.58;16.38;;;11.60;99.90;;;;;;4967995;28;20105;-64
2022/11/11 12:52:30;;;;;;;27.77;16.15;;;;;;;;;;4971344;28;20050;-64
2022/11/11 12:55:18;;;;;;;22.13;14.55;;;;;;;;;;4955158;28;20126;-63
2022/11/11 12:57:44;;;;;;;26.60;15.63;;;;;;;;;;4939436;28;20137;-63
2022/11/11 13:00:13;;;;;;;27.60;15.20;;;;;;;;;;4954542;28;20125;-63
2022/11/11 13:02:45;;;;;;;24.33;15.50;;;;;;;;;;4970431;28;20050;-63
2022/11/11 13:05:11;;;;;;;25.05;15.52;;;;;;;;;;4971006;28;20451;-63
2022/11/11 13:08:01;;;;;;;28.45;15.88;;;;;;;;;;4996527;28;20053;-63
2022/11/11 13:11:18;;;;;;;24.17;15.65;;;12.10;99.90;;;;;;5034087;28;20123;-63
2022/11/11 13:13:51;;;;;;;25.08;16.45;;;;;;;;;;5007451;28;20052;-63
2022/11/11 13:16:19;;;;;;;23.40;15.68;;;;;;;;;;5051911;28;20052;-64
2022/11/11 13:18:50;;;;;;;24.90;14.80;;;;;;;;;;5033690;28;20064;-64
2022/11/11 13:24:22;;;;;;;25.58;15.20;;;;;;;;;;4971319;28;20141;-63
2022/11/11 13:26:50;;;;;;;24.88;15.23;;;;;;;;;;4971987;28;20047;-63
2022/11/11 13:29:31;;;;;;;25.50;12.52;;;;;;;;;;5004345;28;20422;-64
2022/11/11 13:31:58;;;;;;;24.10;14.55;;;;;;;;;;4987741;28;20047;-63
2022/11/11 13:37:38;;;;;;;25.48;16.85;;;;;;;;;;5087333;22;20049;-64
2022/11/11 13:40:09;;;;;;;23.88;14.85;;;;;;;;;;5032867;28;20053;-63
2022/11/11 13:42:35;;;;;;;;;;;;;;;;;;5034119;28;20555;-63
2022/11/11 13:45:02;;;;;;;20.45;13.07;;;;;;;;;;5034064;28;19925;-63
2022/11/11 13:47:37;;;;;;;25.85;15.18;;;;;;;;;;5033285;28;20044;-64
2022/11/11 13:50:09;;;;;;;21.45;14.60;;;;;;;;;;5051614;28;20053;-63
2022/11/11 13:52:36;;;;;;;21.23;14.60;;;;;;;;;;5033638;28;20045;-63
2022/11/11 13:55:04;;;;;;;22.27;13.88;;;;;;;;;;5033558;28;20048;-63
2022/11/11 13:57:31;;;;;;;20.38;14.10;;;;;;;;;;5051338;28;20044;-63
2022/11/11 14:00:02;;;;;;;22.42;14.68;;;;;;;;;;5017581;28;20045;-63
2022/11/11 14:02:29;;;;;;;;;;;12.10;99.90;;;;;;5017283;28;20049;-63
2022/11/11 14:05:01;;;;;;;24.48;15.43;;;;;;;;;;5051501;28;19927;-63
2022/11/11 14:07:48;;;;;;;24.10;15.45;;;;;;;;;;5051110;28;20128;-64
2022/11/11 14:10:17;;;;;;;24.60;14.10;;;;;;;;;;5051474;28;20060;-63
2022/11/11 14:12:46;;;;;;;22.98;14.63;;;;;;;;;;5019261;28;20409;-63
2022/11/11 14:15:37;;;;;;;29.67;16.45;;;12.30;99.90;;;;;;5054617;28;20052;-64
2022/11/11 14:18:04;;;;;;;30.75;16.95;;;;;;;;;;5037165;28;20401;-64
2022/11/11 14:20:33;;;;;;;24.52;15.48;;;;;;;;;;5037126;28;20041;-63
2022/11/11 14:23:17;;;;;;;31.40;17.80;;;;;;;;;;5037152;28;20048;-63
2022/11/11 14:26:03;;;;;;;29.98;19.25;;;;;;;;;;5036786;28;20045;-63
2022/11/11 14:28:31;;;;;;;24.83;16.48;;;;;;;;;;5026216;28;20060;-63
2022/11/11 14:31:12;;;;;;;26.77;15.48;;;;;;;;;;5036800;28;20041;-63
2022/11/11 14:33:44;;;;;;;27.48;17.63;;;;;;;;;;5020330;28;20103;-63
2022/11/11 14:36:45;;;;;;;25.23;16.05;;;12.00;99.90;;;;;;5036962;28;20048;-64
2022/11/11 14:39:36;;;;;;;27.42;18.50;;;12.00;99.90;;;;;;5053616;28;20575;-63
2022/11/11 14:42:02;;;;;;;29.40;15.75;;;;;;;;;;5035638;28;20045;-63
2022/11/11 14:44:38;;;;;;;30.27;19.80;;;;;;;;;;5034865;28;20045;-63
2022/11/11 14:47:07;;;;;;;28.42;16.75;;;;;;;;;;5018850;28;20395;-63
2022/11/11 14:49:43;;;;;;;30.52;17.58;;;;;;;;;;5053036;28;20055;-63
2022/11/11 14:52:18;;;;;;;30.27;17.83;;;;;;;;;;5035728;28;20049;-63
2022/11/11 14:55:02;;;;;;;31.38;18.30;;;;;;;;;;5053046;28;20420;-64
2022/11/11 14:57:35;;;;;;;29.48;17.63;;;;;;;;;;5035056;28;20060;-63
2022/11/11 15:00:02;;;;;;;28.40;17.10;;;;;;;;;;5035079;28;20045;-63
2022/11/11 15:02:30;;;;;;;27.98;17.98;;;;;;;;;;5035087;28;20420;-63
2022/11/11 15:05:00;;;;;;;30.02;18.23;;;;;;;;;;5018934;28;20136;-63
2022/11/11 15:07:37;;;;;;;27.33;16.83;;;;;;;;;;5052564;28;20037;-63
2022/11/11 15:10:25;;;;;;;30.48;18.13;;;;;;;;;;5052774;28;20056;-63
2022/11/11 15:13:03;;;;;;;29.45;17.70;;;;;;;;;;5018457;28;20119;-63
2022/11/11 15:16:02;;;;;;;31.38;19.35;;;11.90;99.90;;;;;;5034736;28;20049;-63
2022/11/11 15:18:54;;;;;;;31.15;19.67;;;11.20;99.90;;;;;;5052022;28;20049;-63
2022/11/11 15:21:25;;;;;;;28.60;16.17;;;;;;;;;;5052659;28;20049;-63
2022/11/11 15:24:05;;;;;;;30.42;18.77;;;;;;;;;;5017625;28;20132;-63
2022/11/11 15:26:37;;;;;;;28.45;17.38;;;;;;;;;;5052211;28;20370;-63
2022/11/11 15:29:20;;;;;;;30.58;17.95;;;;;;;;;;5052102;28;20049;-63
2022/11/11 15:31:55;;;;;;;27.17;17.38;;;;;;;;;;5052601;28;20098;-63
2022/11/11 15:34:25;;;;;;;31.70;18.90;;;;;;;;;;5018332;28;20053;-64
2022/11/11 15:36:53;;;;;;;;;;;11.50;99.90;;;;;;5035232;28;20082;-63
2022/11/11 15:39:23;;;;;;;27.23;17.85;;;;;;;;;;4981453;28;1059287;-63
2022/11/11 15:41:50;;;;;;;31.83;19.45;;;;;;;;;;5031806;28;20377;-63
2022/11/11 15:44:30;;;;;;;29.38;17.63;;;;;;;;;;5017899;28;20038;-65
2022/11/11 15:46:57;;;;;;;29.77;19.05;;;;;;;;;;5021686;28;20041;-63
2022/11/11 15:49:41;;;;;;;27.27;17.73;;;;;;;;;;5012579;28;20036;-65